createdAt,value
2023-06-22T00:01:25.412Z,18.40
2023-06-22T00:03:54.814Z,18.10
2023-06-22T00:06:22.845Z,17.90
2023-06-22T00:08:50.835Z,18.00
2023-06-22T00:11:18.808Z,17.90
2023-06-22T00:13:48.384Z,17.70
2023-06-22T00:16:16.487Z,18.80
2023-06-22T00:18:48.122Z,17.70
2023-06-22T00:21:17.519Z,17.70
2023-06-22T00:23:45.444Z,17.70
2023-06-22T00:26:13.520Z,17.60
2023-06-22T00:28:41.536Z,18.30
2023-06-22T00:31:09.584Z,17.70
2023-06-22T00:33:37.588Z,17.60
2023-06-22T00:36:06.174Z,17.50
2023-06-22T00:38:35.454Z,17.50
2023-06-22T00:41:03.355Z,17.50
2023-06-22T00:43:31.317Z,17.40
2023-06-22T00:45:59.269Z,17.80
2023-06-22T00:48:27.983Z,17.60
2023-06-22T00:50:57.032Z,18.10
2023-06-22T00:53:24.986Z,17.30
2023-06-22T00:55:54.389Z,17.30
2023-06-22T00:58:23.539Z,17.40
2023-06-22T01:00:51.526Z,17.30
2023-06-22T01:03:21.933Z,17.20
2023-06-22T01:05:52.035Z,17.20
2023-06-22T01:08:29.502Z,17.20
2023-06-22T01:11:06.042Z,17.20
2023-06-22T01:13:39.788Z,17.20
2023-06-22T01:16:10.591Z,17.20
2023-06-22T01:18:42.434Z,17.10
2023-06-22T01:21:14.337Z,17.10
2023-06-22T01:23:53.842Z,17.10
2023-06-22T01:26:30.589Z,17.00
2023-06-22T01:29:01.771Z,17.00
2023-06-22T01:31:31.529Z,17.00
2023-06-22T01:34:02.506Z,17.00
2023-06-22T01:36:31.742Z,17.00
2023-06-22T01:39:00.554Z,17.00
2023-06-22T01:41:30.745Z,17.10
2023-06-22T01:44:01.291Z,17.10
2023-06-22T01:46:29.558Z,16.90
2023-06-22T01:48:57.977Z,16.90
2023-06-22T01:51:26.435Z,16.90
2023-06-22T01:53:54.463Z,16.90
2023-06-22T01:56:22.445Z,16.80
2023-06-22T01:59:06.921Z,16.80
2023-06-22T02:01:43.254Z,16.80
2023-06-22T02:04:15.877Z,16.80
2023-06-22T02:06:47.298Z,16.80
2023-06-22T02:09:19.369Z,16.80
2023-06-22T02:11:49.746Z,16.70
2023-06-22T02:14:19.788Z,16.70
2023-06-22T02:16:49.645Z,16.70
2023-06-22T02:19:19.563Z,16.70
2023-06-22T02:21:47.792Z,16.70
2023-06-22T02:24:15.811Z,16.70
2023-06-22T02:26:46.655Z,16.70
2023-06-22T02:29:14.791Z,16.60
2023-06-22T02:31:42.966Z,16.60
2023-06-22T02:34:19.139Z,16.60
2023-06-22T02:36:51.723Z,16.60
2023-06-22T02:39:23.136Z,16.60
2023-06-22T02:41:51.207Z,16.50
2023-06-22T02:44:19.502Z,16.80
2023-06-22T02:46:47.755Z,16.50
2023-06-22T02:49:17.330Z,17.00
2023-06-22T02:51:48.380Z,16.50
2023-06-22T02:54:17.388Z,16.50
2023-06-22T02:56:45.842Z,16.70
2023-06-22T02:59:14.086Z,16.70
2023-06-22T03:01:42.081Z,16.40
2023-06-22T03:04:10.180Z,16.50
2023-06-22T03:06:41.689Z,16.50
2023-06-22T03:09:10.034Z,16.90
2023-06-22T03:11:38.055Z,16.40
2023-06-22T03:14:05.996Z,16.70
2023-06-22T03:16:34.159Z,16.70
2023-06-22T03:19:02.241Z,16.40
2023-06-22T03:21:31.035Z,16.40
2023-06-22T03:24:01.588Z,16.30
2023-06-22T03:26:30.937Z,16.40
2023-06-22T03:28:59.155Z,16.30
2023-06-22T03:31:27.191Z,16.80
2023-06-22T03:33:55.165Z,16.30
2023-06-22T03:36:23.391Z,16.30
2023-06-22T03:38:52.731Z,16.30
2023-06-22T03:41:22.201Z,16.30
2023-06-22T03:43:50.233Z,16.30
2023-06-22T03:46:18.393Z,16.30
2023-06-22T03:48:46.486Z,16.30
2023-06-22T03:51:14.567Z,16.30
2023-06-22T03:53:42.577Z,16.30
2023-06-22T03:56:10.495Z,16.30
2023-06-22T03:58:44.018Z,16.30
2023-06-22T04:01:13.067Z,16.30
2023-06-22T04:03:41.150Z,16.30
2023-06-22T04:06:09.170Z,16.50
2023-06-22T04:08:37.193Z,16.30
2023-06-22T04:11:06.151Z,16.30
2023-06-22T04:13:34.152Z,16.40
2023-06-22T04:16:03.657Z,16.30
2023-06-22T04:18:31.690Z,16.30
2023-06-22T04:20:59.665Z,16.30
2023-06-22T04:23:27.746Z,16.40
2023-06-22T04:25:57.517Z,16.40
2023-06-22T04:28:27.909Z,16.30
2023-06-22T04:30:59.455Z,16.40
2023-06-22T04:33:30.367Z,16.40
2023-06-22T04:35:59.209Z,16.40
2023-06-22T04:38:27.260Z,17.10
2023-06-22T04:40:55.592Z,16.50
2023-06-22T04:43:23.720Z,17.30
2023-06-22T04:45:53.935Z,16.60
2023-06-22T04:48:21.917Z,16.60
2023-06-22T04:50:51.444Z,16.70
2023-06-22T04:53:19.521Z,16.80
2023-06-22T04:55:50.219Z,16.80
2023-06-22T04:58:21.108Z,16.90
2023-06-22T05:00:51.601Z,16.90
2023-06-22T05:03:20.884Z,17.00
2023-06-22T05:05:49.277Z,17.00
2023-06-22T05:08:19.016Z,17.10
2023-06-22T05:10:59.853Z,17.10
2023-06-22T05:13:32.686Z,17.20
2023-06-22T05:16:03.538Z,17.60
2023-06-22T05:18:32.431Z,17.20
2023-06-22T05:21:01.097Z,17.30
2023-06-22T05:23:30.553Z,17.40
2023-06-22T05:25:59.103Z,17.40
2023-06-22T05:28:27.445Z,17.50
2023-06-22T05:30:55.646Z,17.50
2023-06-22T05:33:23.656Z,17.50
2023-06-22T05:35:51.668Z,17.60
2023-06-22T05:38:19.743Z,17.60
2023-06-22T05:40:49.077Z,17.60
2023-06-22T05:43:18.213Z,17.60
2023-06-22T05:45:46.250Z,17.70
2023-06-22T05:48:14.278Z,17.70
2023-06-22T05:50:42.413Z,17.70
2023-06-22T05:53:10.543Z,17.80
2023-06-22T05:55:38.633Z,17.90
2023-06-22T05:58:08.179Z,17.90
2023-06-22T06:00:36.545Z,18.00
2023-06-22T06:03:05.302Z,18.00
2023-06-22T06:05:33.657Z,18.00
2023-06-22T06:08:02.881Z,18.10
2023-06-22T06:10:31.872Z,18.10
2023-06-22T06:13:00.384Z,18.30
2023-06-22T06:15:30.177Z,18.30
2023-06-22T06:17:58.310Z,18.40
2023-06-22T06:20:30.207Z,18.40
2023-06-22T06:22:58.873Z,18.40
2023-06-22T06:25:27.034Z,18.50
2023-06-22T06:27:56.809Z,18.60
2023-06-22T06:30:25.106Z,18.60
2023-06-22T06:32:54.640Z,18.70
2023-06-22T06:35:22.846Z,18.70
2023-06-22T06:37:52.361Z,18.70
2023-06-22T06:40:21.116Z,18.80
2023-06-22T06:42:50.460Z,18.80
2023-06-22T06:45:20.463Z,18.90
2023-06-22T06:47:49.001Z,18.90
2023-06-22T06:50:18.843Z,19.00
2023-06-22T06:52:46.992Z,19.00
2023-06-22T06:55:15.226Z,19.10
2023-06-22T06:57:44.332Z,19.20
2023-06-22T07:00:16.228Z,19.20
2023-06-22T07:02:45.694Z,19.30
2023-06-22T07:05:14.584Z,19.40
2023-06-22T07:07:44.339Z,19.50
2023-06-22T07:10:12.590Z,19.60
2023-06-22T07:12:40.637Z,19.60
2023-06-22T07:15:10.590Z,19.70
2023-06-22T07:17:40.374Z,19.80
2023-06-22T07:20:11.691Z,20.30
2023-06-22T07:22:40.181Z,20.00
2023-06-22T07:25:11.190Z,20.10
2023-06-22T07:27:40.950Z,20.10
2023-06-22T07:30:10.055Z,20.30
2023-06-22T07:32:38.173Z,20.30
2023-06-22T07:35:07.505Z,20.40
2023-06-22T07:37:36.362Z,20.50
2023-06-22T07:40:07.771Z,20.60
2023-06-22T07:42:37.625Z,20.70
2023-06-22T07:45:07.046Z,20.80
2023-06-22T07:47:36.554Z,20.90
2023-06-22T07:50:06.031Z,21.00
2023-06-22T07:52:34.409Z,21.10
2023-06-22T07:55:03.286Z,21.20
2023-06-22T07:57:34.907Z,21.30
2023-06-22T08:00:12.517Z,21.40
2023-06-22T08:02:41.153Z,21.50
2023-06-22T08:05:20.004Z,21.50
2023-06-22T08:07:49.146Z,22.00
2023-06-22T08:10:17.778Z,21.80
2023-06-22T08:12:45.919Z,21.90
2023-06-22T08:15:15.356Z,22.00
2023-06-22T08:17:43.454Z,22.00
2023-06-22T08:20:13.576Z,22.10
2023-06-22T08:22:42.244Z,22.20
2023-06-22T08:25:11.480Z,22.30
2023-06-22T08:27:39.567Z,22.50
2023-06-22T08:30:09.612Z,22.50
2023-06-22T08:32:38.982Z,22.60
2023-06-22T08:35:09.284Z,22.70
2023-06-22T08:37:37.554Z,22.80
2023-06-22T08:40:08.926Z,22.90
2023-06-22T08:42:37.044Z,23.00
2023-06-22T08:45:05.532Z,23.10
2023-06-22T08:47:33.580Z,23.10
2023-06-22T08:50:04.123Z,23.30
2023-06-22T08:52:32.263Z,23.30
2023-06-22T08:55:00.511Z,23.50
2023-06-22T08:57:28.677Z,23.50
2023-06-22T08:59:59.633Z,23.70
2023-06-22T09:02:31.101Z,23.70
2023-06-22T09:04:59.665Z,23.90
2023-06-22T09:07:29.176Z,24.00
2023-06-22T09:09:58.230Z,24.10
2023-06-22T09:12:28.247Z,24.20
2023-06-22T09:14:56.236Z,24.30
2023-06-22T09:17:24.398Z,24.40
2023-06-22T09:19:52.412Z,24.50
2023-06-22T09:22:20.411Z,24.60
2023-06-22T09:24:49.732Z,24.60
2023-06-22T09:27:17.661Z,24.70
2023-06-22T09:29:45.641Z,24.80
2023-06-22T09:32:13.662Z,24.90
2023-06-22T09:34:41.912Z,25.00
2023-06-22T09:37:09.872Z,25.10
2023-06-22T09:39:38.343Z,25.10
2023-06-22T09:42:08.718Z,25.20
2023-06-22T09:44:36.797Z,25.20
2023-06-22T09:47:05.150Z,25.30
2023-06-22T09:49:47.261Z,25.30
2023-06-22T09:52:15.759Z,25.40
2023-06-22T09:54:43.750Z,25.50
2023-06-22T09:57:13.163Z,25.60
2023-06-22T09:59:41.664Z,25.60
2023-06-22T10:02:10.148Z,25.60
2023-06-22T10:04:38.678Z,25.80
2023-06-22T10:07:07.393Z,25.80
2023-06-22T10:09:35.416Z,25.90
2023-06-22T10:12:03.430Z,26.00
2023-06-22T10:14:32.790Z,26.00
2023-06-22T10:17:00.868Z,26.00
2023-06-22T10:19:28.938Z,26.20
2023-06-22T10:21:56.954Z,26.20
2023-06-22T10:24:24.905Z,26.20
2023-06-22T10:26:52.873Z,26.20
2023-06-22T10:29:21.027Z,26.30
2023-06-22T10:31:50.478Z,26.20
2023-06-22T10:34:18.466Z,26.10
2023-06-22T10:36:49.517Z,26.20
2023-06-22T10:39:17.710Z,26.30
2023-06-22T10:41:45.694Z,26.20
2023-06-22T10:44:14.608Z,26.30
2023-06-22T10:46:42.584Z,26.10
2023-06-22T10:49:11.997Z,26.20
2023-06-22T10:51:39.999Z,26.10
2023-06-22T10:54:08.015Z,26.10
2023-06-22T10:56:35.968Z,26.10
2023-06-22T10:59:04.073Z,26.10
2023-06-22T11:01:36.428Z,26.10
2023-06-22T11:04:05.739Z,26.10
2023-06-22T11:06:35.342Z,26.10
2023-06-22T11:09:12.019Z,26.10
2023-06-22T11:11:54.635Z,26.10
2023-06-22T11:14:23.449Z,26.10
2023-06-22T11:16:51.621Z,26.20
2023-06-22T11:19:19.716Z,26.10
2023-06-22T11:21:49.199Z,26.10
2023-06-22T11:24:18.084Z,26.20
2023-06-22T11:26:46.122Z,26.20
2023-06-22T11:29:23.734Z,26.20
2023-06-22T11:31:56.061Z,26.20
2023-06-22T11:34:24.128Z,26.10
2023-06-22T11:36:53.498Z,26.20
2023-06-22T11:39:26.692Z,26.30
2023-06-22T11:42:02.417Z,26.20
2023-06-22T11:44:30.463Z,26.20
2023-06-22T11:46:58.399Z,26.20
2023-06-22T11:49:26.339Z,26.30
2023-06-22T11:51:55.746Z,26.20
2023-06-22T11:54:23.803Z,26.20
2023-06-22T11:56:51.851Z,26.20
2023-06-22T11:59:19.803Z,26.20
2023-06-22T12:01:48.651Z,26.10
2023-06-22T12:04:16.895Z,26.10
2023-06-22T12:06:44.888Z,26.00
2023-06-22T12:09:15.103Z,26.00
2023-06-22T12:11:43.334Z,25.90
2023-06-22T12:14:11.410Z,25.90
2023-06-22T12:16:39.730Z,25.80
2023-06-22T12:19:07.728Z,25.70
2023-06-22T12:21:35.771Z,25.60
2023-06-22T12:24:03.807Z,25.60
2023-06-22T12:26:33.152Z,25.60
2023-06-22T12:29:01.128Z,25.60
2023-06-22T12:31:29.167Z,25.60
2023-06-22T12:33:57.126Z,25.50
2023-06-22T12:36:25.670Z,25.50
2023-06-22T12:38:54.455Z,25.40
2023-06-22T12:41:24.458Z,25.50
2023-06-22T12:43:53.844Z,25.50
2023-06-22T12:46:21.800Z,25.50
2023-06-22T12:48:49.767Z,25.40
2023-06-22T12:51:24.137Z,25.40
2023-06-22T12:53:52.301Z,25.40
2023-06-22T12:56:20.369Z,25.30
2023-06-22T12:58:48.316Z,25.30
2023-06-22T13:01:19.276Z,25.30
2023-06-22T13:03:47.514Z,25.30
2023-06-22T13:06:15.567Z,25.30
2023-06-22T13:09:19.074Z,25.20
2023-06-22T13:11:32.429Z,25.20
2023-06-22T13:14:00.451Z,25.20
2023-06-22T13:16:29.805Z,25.10
2023-06-22T13:18:57.720Z,25.10
2023-06-22T13:21:25.719Z,25.10
2023-06-22T13:23:53.972Z,25.10
2023-06-22T13:26:24.069Z,25.00
2023-06-22T13:28:52.332Z,25.00
2023-06-22T13:31:20.510Z,25.00
2023-06-22T13:33:50.255Z,24.90
2023-06-22T13:36:19.362Z,24.90
2023-06-22T13:38:47.421Z,24.90
2023-06-22T13:41:15.491Z,25.00
2023-06-22T13:43:43.526Z,24.80
2023-06-22T13:46:11.596Z,24.80
2023-06-22T13:48:39.744Z,24.80
2023-06-22T13:51:09.143Z,24.70
2023-06-22T13:53:37.164Z,24.80
2023-06-22T13:56:05.548Z,24.80
2023-06-22T13:58:33.611Z,24.70
2023-06-22T14:01:01.607Z,24.80
2023-06-22T14:03:29.666Z,24.90
2023-06-22T14:05:59.137Z,24.70
2023-06-22T14:10:59.398Z,24.80
2023-06-22T14:13:27.348Z,24.70
2023-06-22T14:15:55.452Z,24.70
2023-06-22T14:18:24.410Z,24.70
2023-06-22T14:20:52.508Z,24.60
2023-06-22T14:23:20.534Z,24.60
2023-06-22T14:25:49.949Z,24.50
2023-06-22T14:28:18.547Z,24.40
2023-06-22T14:30:46.746Z,24.50
2023-06-22T14:33:14.958Z,24.50
2023-06-22T14:35:42.998Z,24.40
2023-06-22T14:38:10.952Z,24.40
2023-06-22T14:40:53.360Z,24.30
2023-06-22T14:43:28.290Z,24.30
2023-06-22T14:45:56.299Z,24.20
2023-06-22T14:48:24.425Z,24.20
2023-06-22T14:50:52.393Z,24.20
2023-06-22T14:53:20.595Z,24.20
2023-06-22T14:55:48.733Z,24.10
2023-06-22T14:58:16.797Z,24.00
2023-06-22T15:00:46.203Z,24.00
2023-06-22T15:03:18.655Z,24.00
2023-06-22T15:05:48.494Z,23.90
2023-06-22T15:08:16.592Z,23.90
2023-06-22T15:10:44.722Z,23.90
2023-06-22T15:13:12.714Z,23.90
2023-06-22T15:15:42.008Z,23.90
2023-06-22T15:18:11.505Z,23.90
2023-06-22T15:20:39.678Z,23.80
2023-06-22T15:23:09.714Z,23.80
2023-06-22T15:25:38.719Z,23.70
2023-06-22T15:28:08.282Z,23.70
2023-06-22T15:30:36.269Z,23.70
2023-06-22T15:33:04.696Z,23.60
2023-06-22T15:35:34.084Z,23.50
2023-06-22T15:38:02.875Z,23.50
2023-06-22T15:40:31.095Z,23.40
2023-06-22T15:43:00.790Z,23.40
2023-06-22T15:45:28.931Z,23.30
2023-06-22T15:47:57.031Z,23.20
2023-06-22T15:50:25.126Z,23.30
2023-06-22T15:52:54.476Z,23.20
2023-06-22T15:55:22.484Z,23.20
2023-06-22T15:57:50.456Z,23.10
2023-06-22T16:00:19.907Z,23.00
2023-06-22T16:02:48.730Z,23.00
2023-06-22T16:05:17.102Z,23.00
2023-06-22T16:07:45.098Z,22.90
2023-06-22T16:10:16.654Z,22.90
2023-06-22T16:12:45.651Z,22.80
2023-06-22T16:15:13.984Z,22.90
2023-06-22T16:17:42.177Z,22.90
2023-06-22T16:20:11.631Z,22.90
2023-06-22T16:22:39.712Z,22.90
2023-06-22T16:25:08.202Z,22.90
2023-06-22T16:27:37.544Z,22.80
2023-06-22T16:30:06.310Z,22.80
2023-06-22T16:32:34.351Z,22.80
2023-06-22T16:35:02.395Z,22.80
2023-06-22T16:37:30.586Z,22.70
2023-06-22T16:39:59.369Z,22.70
2023-06-22T16:42:27.383Z,22.70
2023-06-22T16:44:56.778Z,22.70
2023-06-22T16:47:24.846Z,22.60
2023-06-22T16:49:52.892Z,22.60
2023-06-22T16:52:20.918Z,22.50
2023-06-22T16:54:59.817Z,22.40
2023-06-22T16:57:28.869Z,22.50
2023-06-22T16:59:58.252Z,22.40
2023-06-22T17:02:27.734Z,22.50
2023-06-22T17:04:56.680Z,22.30
2023-06-22T17:07:27.533Z,22.20
2023-06-22T17:09:57.440Z,22.30
2023-06-22T17:12:26.947Z,22.20
2023-06-22T17:14:56.053Z,22.20
2023-06-22T17:17:27.791Z,22.10
2023-06-22T17:19:56.074Z,22.10
2023-06-22T17:22:24.506Z,22.00
2023-06-22T17:24:53.467Z,22.00
2023-06-22T17:27:29.713Z,22.10
2023-06-22T17:30:06.459Z,21.80
2023-06-22T17:32:35.832Z,21.90
2023-06-22T17:35:05.505Z,21.90
2023-06-22T17:37:49.387Z,21.90
2023-06-22T17:40:18.651Z,21.90
2023-06-22T17:42:47.027Z,21.90
2023-06-22T17:45:19.054Z,21.90
2023-06-22T17:47:53.374Z,22.00
2023-06-22T17:50:24.892Z,21.90
2023-06-22T17:52:54.347Z,21.90
2023-06-22T17:55:23.264Z,21.80
2023-06-22T17:57:57.439Z,21.80
2023-06-22T18:00:26.260Z,21.90
2023-06-22T18:02:59.203Z,21.80
2023-06-22T18:05:31.944Z,22.00
2023-06-22T18:08:01.197Z,21.90
2023-06-22T18:10:30.467Z,21.90
2023-06-22T18:13:00.712Z,21.90
2023-06-22T18:15:29.665Z,21.80
2023-06-22T18:18:01.092Z,21.80
2023-06-22T18:20:29.997Z,21.90
2023-06-22T18:22:59.741Z,21.80
2023-06-22T18:25:29.221Z,21.70
2023-06-22T18:27:57.614Z,21.80
2023-06-22T18:30:26.352Z,21.80
2023-06-22T18:32:54.490Z,21.80
2023-06-22T18:35:24.119Z,21.80
2023-06-22T18:37:56.252Z,21.80
2023-06-22T18:40:24.106Z,21.80
2023-06-22T18:42:52.598Z,21.80
2023-06-22T18:45:24.922Z,21.80
2023-06-22T18:48:03.813Z,21.70
2023-06-22T18:50:43.566Z,21.70
2023-06-22T18:53:18.129Z,21.70
2023-06-22T18:55:47.156Z,21.60
2023-06-22T18:58:16.731Z,21.60
2023-06-22T19:00:44.827Z,21.40
2023-06-22T19:03:30.210Z,21.50
2023-06-22T19:05:59.737Z,21.40
2023-06-22T19:08:27.934Z,21.40
2023-06-22T19:11:12.409Z,21.30
2023-06-22T19:13:49.744Z,21.30
2023-06-22T19:16:18.156Z,21.20
2023-06-22T19:18:52.423Z,21.20
2023-06-22T19:21:24.633Z,21.20
2023-06-22T19:23:53.021Z,21.10
2023-06-22T19:26:22.654Z,21.00
2023-06-22T19:28:52.179Z,20.90
2023-06-22T19:31:21.473Z,20.90
2023-06-22T19:33:52.678Z,20.90
2023-06-22T19:36:23.502Z,20.80
2023-06-22T19:38:52.299Z,20.70
2023-06-22T19:41:23.338Z,20.70
2023-06-22T19:43:51.945Z,20.70
2023-06-22T19:46:20.085Z,20.50
2023-06-22T19:48:49.006Z,20.40
2023-06-22T19:51:17.051Z,20.30
2023-06-22T19:53:46.404Z,20.30
2023-06-22T19:56:14.378Z,20.30
2023-06-22T19:58:42.363Z,20.60
2023-06-22T20:01:10.472Z,20.10
2023-06-22T20:03:41.856Z,20.00
2023-06-22T20:06:11.914Z,20.00
2023-06-22T20:08:49.392Z,19.90
2023-06-22T20:11:26.362Z,19.80
2023-06-22T20:13:55.502Z,19.80
2023-06-22T20:16:24.463Z,19.70
2023-06-22T20:19:09.764Z,19.70
2023-06-22T20:21:39.691Z,19.50
2023-06-22T20:24:10.571Z,19.60
2023-06-22T20:26:42.002Z,19.50
2023-06-22T20:29:26.342Z,19.40
2023-06-22T20:32:08.620Z,19.40
2023-06-22T20:34:38.373Z,19.40
2023-06-22T20:37:07.269Z,19.30
2023-06-22T20:39:37.365Z,19.30
2023-06-22T20:42:06.878Z,19.30
2023-06-22T20:44:35.259Z,19.20
2023-06-22T20:47:04.802Z,19.20
2023-06-22T20:49:33.560Z,19.20
2023-06-22T20:52:07.209Z,19.20
2023-06-22T20:54:37.359Z,19.10
2023-06-22T20:57:06.036Z,19.00
2023-06-22T20:59:34.138Z,19.00
2023-06-22T21:02:02.332Z,19.00
2023-06-22T21:04:30.448Z,18.90
2023-06-22T21:06:58.573Z,18.90
2023-06-22T21:09:29.998Z,18.80
2023-06-22T21:12:01.877Z,18.80
2023-06-22T21:14:29.924Z,18.80
2023-06-22T21:16:57.912Z,19.30
2023-06-22T21:19:25.966Z,19.20
2023-06-22T21:21:54.382Z,18.60
2023-06-22T21:24:22.366Z,18.60
2023-06-22T21:26:50.526Z,18.60
2023-06-22T21:29:19.878Z,18.50
2023-06-22T21:31:48.122Z,18.60
2023-06-22T21:34:16.293Z,18.50
2023-06-22T21:36:44.303Z,18.40
2023-06-22T21:39:12.281Z,18.50
2023-06-22T21:41:40.315Z,18.40
2023-06-22T21:44:08.429Z,18.40
2023-06-22T21:46:37.927Z,18.40
2023-06-22T21:49:05.967Z,18.40
2023-06-22T21:51:35.172Z,18.30
2023-06-22T21:54:03.347Z,18.30
2023-06-22T21:56:31.448Z,18.30
2023-06-22T21:58:59.380Z,18.30
2023-06-22T22:01:27.503Z,18.70
2023-06-22T22:03:57.263Z,18.20
2023-06-22T22:06:25.258Z,18.20
2023-06-22T22:08:53.401Z,18.00
2023-06-22T22:11:21.507Z,18.10
2023-06-22T22:13:50.077Z,18.10
2023-06-22T22:16:18.292Z,18.10
2023-06-22T22:18:47.756Z,18.00
2023-06-22T22:21:17.079Z,18.00
2023-06-22T22:23:45.113Z,18.10
2023-06-22T22:26:13.175Z,17.90
2023-06-22T22:28:41.228Z,17.90
2023-06-22T22:31:09.298Z,17.90
2023-06-22T22:33:37.429Z,18.00
2023-06-22T22:36:06.416Z,17.90
2023-06-22T22:38:36.149Z,17.90
2023-06-22T22:41:04.211Z,17.90
2023-06-22T22:43:33.170Z,17.80
2023-06-22T22:46:01.682Z,17.80
2023-06-22T22:48:32.337Z,17.80
2023-06-22T22:51:00.572Z,17.80
2023-06-22T22:53:28.589Z,17.70
2023-06-22T22:55:58.399Z,17.70
2023-06-22T22:58:26.545Z,17.70
2023-06-22T23:00:55.165Z,17.70
2023-06-22T23:03:23.386Z,17.60
2023-06-22T23:05:52.324Z,17.60
2023-06-22T23:08:21.979Z,17.60
2023-06-22T23:10:50.276Z,17.60
2023-06-22T23:13:19.725Z,17.60
2023-06-22T23:15:47.816Z,17.60
2023-06-22T23:18:15.992Z,17.50
2023-06-22T23:20:44.039Z,17.50
2023-06-22T23:23:12.117Z,17.50
2023-06-22T23:25:40.411Z,17.70
2023-06-22T23:28:08.565Z,17.40
2023-06-22T23:30:39.648Z,17.50
2023-06-22T23:33:07.640Z,17.40
2023-06-22T23:35:35.647Z,17.40
2023-06-22T23:38:03.610Z,17.60
2023-06-22T23:40:31.842Z,17.30
2023-06-22T23:42:59.979Z,17.40
2023-06-22T23:45:28.060Z,17.30
2023-06-22T23:47:57.578Z,17.30
2023-06-22T23:50:25.680Z,17.10
2023-06-22T23:52:53.837Z,17.30
2023-06-22T23:55:24.617Z,17.30
2023-06-22T23:57:57.826Z,17.20
